createdAt,value
2017-10-01T00:04:12.647Z,100839
2017-10-01T00:09:15.856Z,100853
2017-10-01T00:14:19.057Z,100853
2017-10-01T00:19:22.251Z,100856
2017-10-01T00:24:26.507Z,100857
2017-10-01T00:29:29.798Z,100862
2017-10-01T00:34:33.014Z,100851
2017-10-01T00:39:37.053Z,100854
2017-10-01T00:44:40.272Z,100860
2017-10-01T00:49:43.471Z,100858
2017-10-01T00:54:46.687Z,100871
2017-10-01T00:59:49.844Z,100874
2017-10-01T01:04:53.224Z,100873
2017-10-01T01:09:56.427Z,100876
2017-10-01T01:15:00.409Z,100870
2017-10-01T01:20:03.594Z,100871
2017-10-01T01:25:06.778Z,100882
2017-10-01T01:30:10.730Z,100877
2017-10-01T01:35:13.938Z,100875
2017-10-01T01:40:17.118Z,100880
2017-10-01T01:45:20.312Z,100883
2017-10-01T01:50:24.277Z,100883
2017-10-01T01:55:27.477Z,100890
2017-10-01T02:00:30.687Z,100897
2017-10-01T02:05:33.909Z,100894
2017-10-01T02:10:37.081Z,100907
2017-10-01T02:15:40.456Z,100917
2017-10-01T02:20:43.662Z,100919
2017-10-01T02:25:46.842Z,100925
2017-10-01T02:30:50.017Z,100925
2017-10-01T02:35:53.437Z,100930
2017-10-01T02:40:56.618Z,100928
2017-10-01T02:46:00.559Z,100948
2017-10-01T02:51:03.732Z,100953
2017-10-01T02:56:06.958Z,100947
2017-10-01T03:01:10.221Z,100949
2017-10-01T03:06:13.377Z,100966
2017-10-01T03:11:16.636Z,100960
2017-10-01T03:16:19.801Z,100970
2017-10-01T03:21:22.989Z,100963
2017-10-01T03:26:26.171Z,100970
2017-10-01T03:31:29.344Z,100986
2017-10-01T03:36:32.534Z,100989
2017-10-01T03:41:35.775Z,100982
2017-10-01T03:46:38.950Z,100994
2017-10-01T03:51:42.144Z,100987
2017-10-01T03:56:45.294Z,100983
2017-10-01T04:01:48.480Z,100987
2017-10-01T04:06:51.669Z,100984
2017-10-01T04:11:54.867Z,100984
2017-10-01T04:16:58.076Z,100977
2017-10-01T04:22:01.257Z,100989
2017-10-01T04:27:05.202Z,100988
2017-10-01T04:32:08.468Z,100987
2017-10-01T04:37:11.638Z,100980
2017-10-01T04:42:14.825Z,100992
2017-10-01T04:47:18.010Z,100994
2017-10-01T04:52:21.213Z,101001
2017-10-01T04:57:25.182Z,101015
2017-10-01T05:02:28.404Z,101009
2017-10-01T05:07:31.611Z,101010
2017-10-01T05:12:34.796Z,101013
2017-10-01T05:17:37.977Z,101023
2017-10-01T05:22:41.178Z,101028
2017-10-01T05:27:44.556Z,101028
2017-10-01T05:32:47.849Z,101048
2017-10-01T05:37:51.042Z,101056
2017-10-01T05:42:54.222Z,101061
2017-10-01T05:47:57.402Z,101057
2017-10-01T05:53:01.362Z,101061
2017-10-01T05:58:04.656Z,101055
2017-10-01T06:03:07.849Z,101078
2017-10-01T06:08:11.050Z,101074
2017-10-01T06:13:15.000Z,101078
2017-10-01T06:18:18.306Z,101084
2017-10-01T06:23:21.502Z,101081
2017-10-01T06:28:24.692Z,101082
2017-10-01T06:33:28.641Z,101076
2017-10-01T06:38:31.881Z,101080
2017-10-01T06:43:35.069Z,101084
2017-10-01T06:48:38.412Z,101081
2017-10-01T06:53:41.593Z,101075
2017-10-01T06:58:44.829Z,101087
2017-10-01T07:03:48.076Z,101086
2017-10-01T07:08:51.266Z,101094
2017-10-01T07:13:55.272Z,101099
2017-10-01T07:18:58.486Z,101086
2017-10-01T07:24:02.542Z,101107
2017-10-01T07:29:05.755Z,101096
2017-10-01T07:34:08.961Z,101100
2017-10-01T07:39:12.204Z,101119
2017-10-01T07:44:15.402Z,101119
2017-10-01T07:49:18.618Z,101125
2017-10-01T07:54:21.838Z,101121
2017-10-01T07:59:25.025Z,101125
2017-10-01T08:04:29.078Z,101119
2017-10-01T08:09:32.255Z,101120
2017-10-01T08:14:35.674Z,101125
2017-10-01T08:19:39.048Z,101119
2017-10-01T08:24:42.262Z,101121
2017-10-01T08:29:45.905Z,101111
2017-10-01T08:34:49.178Z,101124
2017-10-01T08:39:52.442Z,101120
2017-10-01T08:44:55.626Z,101119
2017-10-01T08:49:58.822Z,101132
2017-10-01T08:55:02.103Z,101136
2017-10-01T09:00:05.289Z,101132
2017-10-01T09:05:09.317Z,101120
2017-10-01T09:10:13.318Z,101122
2017-10-01T09:15:16.502Z,101124
2017-10-01T09:20:19.684Z,101124
2017-10-01T09:25:22.905Z,101122
2017-10-01T09:30:26.102Z,101125
2017-10-01T09:35:29.301Z,101125
2017-10-01T09:40:37.178Z,101121
2017-10-01T09:45:40.574Z,101105
2017-10-01T09:50:43.769Z,101111
2017-10-01T09:55:47.033Z,101105
2017-10-01T10:00:50.502Z,101101
2017-10-01T10:05:53.727Z,101093
2017-10-01T10:10:57.712Z,101095
2017-10-01T10:16:00.938Z,101113
2017-10-01T10:21:04.425Z,101108
2017-10-01T10:26:07.640Z,101100
2017-10-01T10:31:10.850Z,101117
2017-10-01T10:36:14.271Z,101107
2017-10-01T10:41:17.481Z,101113
2017-10-01T10:46:20.666Z,101127
2017-10-01T10:51:23.853Z,101121
2017-10-01T10:56:27.123Z,101124
2017-10-01T11:01:30.436Z,101110
2017-10-01T11:06:34.465Z,101111
2017-10-01T11:11:38.469Z,101119
2017-10-01T11:16:42.466Z,101112
2017-10-01T11:21:45.863Z,101110
2017-10-01T11:26:49.074Z,101096
2017-10-01T11:31:52.259Z,101093
2017-10-01T11:36:55.478Z,101090
2017-10-01T11:41:58.905Z,101096
2017-10-01T11:47:02.204Z,101092
2017-10-01T11:52:05.514Z,101094
2017-10-01T11:57:08.877Z,101090
2017-10-01T12:02:12.863Z,101083
2017-10-01T12:07:16.086Z,101073
2017-10-01T12:12:20.073Z,101066
2017-10-01T12:17:23.283Z,101058
2017-10-01T12:22:26.483Z,101060
2017-10-01T12:27:29.850Z,101054
2017-10-01T12:32:33.813Z,101049
2017-10-01T12:37:38.514Z,101038
2017-10-01T12:42:42.543Z,101034
2017-10-01T12:47:46.622Z,101039
2017-10-01T12:52:49.854Z,101041
2017-10-01T12:57:53.077Z,101045
2017-10-01T13:02:57.048Z,101041
2017-10-01T13:08:00.401Z,101045
2017-10-01T13:13:03.710Z,101042
2017-10-01T13:18:06.904Z,101040
2017-10-01T13:23:10.209Z,101040
2017-10-01T13:28:13.679Z,101029
2017-10-01T13:33:16.939Z,101027
2017-10-01T13:38:20.248Z,101012
2017-10-01T13:43:23.446Z,101013
2017-10-01T13:48:26.916Z,101012
2017-10-01T13:53:30.137Z,101013
2017-10-01T13:58:34.069Z,100998
2017-10-01T14:03:41.234Z,100993
2017-10-01T14:08:44.967Z,100987
2017-10-01T14:13:48.165Z,100975
2017-10-01T14:18:51.401Z,100974
2017-10-01T14:23:54.905Z,100980
2017-10-01T14:28:58.170Z,100984
2017-10-01T14:34:01.523Z,100968
2017-10-01T14:39:04.742Z,100974
2017-10-01T14:44:08.678Z,100963
2017-10-01T14:49:11.955Z,100965
2017-10-01T14:54:15.184Z,100958
2017-10-01T14:59:18.464Z,100950
2017-10-01T15:04:21.704Z,100946
2017-10-01T15:09:24.986Z,100952
2017-10-01T15:14:28.246Z,100936
2017-10-01T15:19:31.465Z,100942
2017-10-01T15:24:35.499Z,100932
2017-10-01T15:29:38.763Z,100936
2017-10-01T15:34:41.981Z,100929
2017-10-01T15:39:45.228Z,100927
2017-10-01T15:44:48.443Z,100939
2017-10-01T15:49:51.658Z,100938
2017-10-01T15:54:54.889Z,100924
2017-10-01T15:59:58.130Z,100918
2017-10-01T16:05:01.341Z,100929
2017-10-01T16:10:05.421Z,100916
2017-10-01T16:15:08.675Z,100907
2017-10-01T16:20:12.656Z,100924
2017-10-01T16:25:15.850Z,100924
2017-10-01T16:30:19.087Z,100909
2017-10-01T16:35:22.357Z,100916
2017-10-01T16:40:25.582Z,100905
2017-10-01T16:45:29.342Z,100900
2017-10-01T16:50:32.711Z,100920
2017-10-01T16:55:36.072Z,100924
2017-10-01T17:00:39.266Z,100914
2017-10-01T17:05:42.509Z,100914
2017-10-01T17:10:45.774Z,100921
2017-10-01T17:15:49.000Z,100921
2017-10-01T17:20:52.192Z,100922
2017-10-01T17:25:55.406Z,100931
2017-10-01T17:30:59.750Z,100930
2017-10-01T17:36:03.792Z,100916
2017-10-01T17:41:07.043Z,100925
2017-10-01T17:46:10.280Z,100946
2017-10-01T17:51:13.772Z,100934
2017-10-01T17:56:17.013Z,100940
2017-10-01T18:01:21.071Z,100916
2017-10-01T18:06:24.267Z,100919
2017-10-01T18:11:27.514Z,100924
2017-10-01T18:16:30.721Z,100934
2017-10-01T18:21:33.938Z,100932
2017-10-01T18:26:37.178Z,100930
2017-10-01T18:31:41.296Z,100936
2017-10-01T18:36:45.425Z,100943
2017-10-01T18:41:49.412Z,100949
2017-10-01T18:46:52.694Z,100946
2017-10-01T18:51:55.915Z,100940
2017-10-01T18:56:59.126Z,100945
2017-10-01T19:02:02.416Z,100941
2017-10-01T19:07:07.140Z,100937
2017-10-01T19:12:12.370Z,100933
2017-10-01T19:17:15.598Z,100940
2017-10-01T19:22:19.722Z,100953
2017-10-01T19:27:23.675Z,100944
2017-10-01T19:32:27.017Z,100955
2017-10-01T19:37:30.310Z,100955
2017-10-01T19:42:34.206Z,100946
2017-10-01T19:47:37.475Z,100946
2017-10-01T19:52:43.116Z,100942
2017-10-01T19:57:46.335Z,100939
2017-10-01T20:02:49.571Z,100930
2017-10-01T20:07:53.557Z,100916
2017-10-01T20:12:56.776Z,100916
2017-10-01T20:17:59.993Z,100915
2017-10-01T20:23:03.201Z,100914
2017-10-01T20:28:06.496Z,100926
2017-10-01T20:33:09.701Z,100933
2017-10-01T20:38:12.905Z,100920
2017-10-01T20:43:16.121Z,100915
2017-10-01T20:48:19.318Z,100912
2017-10-01T20:53:22.536Z,100891
2017-10-01T20:58:25.706Z,100893
2017-10-01T21:03:28.958Z,100896
2017-10-01T21:08:32.173Z,100899
2017-10-01T21:13:35.382Z,100888
2017-10-01T21:18:39.370Z,100873
2017-10-01T21:23:42.567Z,100876
2017-10-01T21:28:45.772Z,100880
2017-10-01T21:33:48.962Z,100878
2017-10-01T21:38:52.181Z,100869
2017-10-01T21:43:55.390Z,100856
2017-10-01T21:48:58.719Z,100850
2017-10-01T21:54:01.909Z,100835
2017-10-01T21:59:05.208Z,100848
2017-10-01T22:04:08.401Z,100832
2017-10-01T22:09:11.728Z,100838
2017-10-01T22:14:14.936Z,100838
2017-10-01T22:19:18.256Z,100832
2017-10-01T22:24:21.563Z,100836
2017-10-01T22:29:24.757Z,100819
2017-10-01T22:34:28.007Z,100815
2017-10-01T22:39:31.975Z,100818
2017-10-01T22:44:35.190Z,100817
2017-10-01T22:49:38.390Z,100821
2017-10-01T22:54:41.590Z,100820
2017-10-01T22:59:44.793Z,100810
2017-10-01T23:04:48.183Z,100818
2017-10-01T23:09:51.375Z,100805
2017-10-01T23:14:55.462Z,100800
2017-10-01T23:19:58.681Z,100801
2017-10-01T23:25:01.875Z,100800
2017-10-01T23:30:05.067Z,100796
2017-10-01T23:35:08.271Z,100790
2017-10-01T23:40:11.471Z,100791
2017-10-01T23:45:14.742Z,100798
2017-10-01T23:50:18.734Z,100804
2017-10-01T23:55:21.938Z,100814
